sensor_id;sensor_type;location;lat;lon;timestamp;pressure;altitude;pressure_sealevel;temperature;humidity
54172;BME280;40076;52.354;4.970;2023-05-02T00:00:01;102076.13;;;12.21;100.00
54172;BME280;40076;52.354;4.970;2023-05-02T00:02:28;102069.41;;;12.19;100.00
54172;BME280;40076;52.354;4.970;2023-05-02T00:04:53;102075.94;;;12.18;100.00
54172;BME280;40076;52.354;4.970;2023-05-02T00:07:18;102070.28;;;12.14;100.00
54172;BME280;40076;52.354;4.970;2023-05-02T00:09:44;102070.28;;;12.14;100.00
54172;BME280;40076;52.354;4.970;2023-05-02T00:12:10;102079.22;;;12.15;100.00
54172;BME280;40076;52.354;4.970;2023-05-02T00:14:35;102085.16;;;12.17;100.00
54172;BME280;40076;52.354;4.970;2023-05-02T00:17:01;102090.56;;;12.17;100.00
54172;BME280;40076;52.354;4.970;2023-05-02T00:19:26;102102.81;;;12.14;100.00
54172;BME280;40076;52.354;4.970;2023-05-02T00:21:51;102090.56;;;12.17;100.00
54172;BME280;40076;52.354;4.970;2023-05-02T00:24:17;102091.38;;;12.17;100.00
54172;BME280;40076;52.354;4.970;2023-05-02T00:26:43;102087.56;;;12.18;100.00
54172;BME280;40076;52.354;4.970;2023-05-02T00:29:11;102085.97;;;12.17;100.00
54172;BME280;40076;52.354;4.970;2023-05-02T00:31:36;102099.00;;;12.15;100.00
54172;BME280;40076;52.354;4.970;2023-05-02T00:34:01;102101.00;;;12.10;100.00
54172;BME280;40076;52.354;4.970;2023-05-02T00:36:27;102110.22;;;12.09;100.00
54172;BME280;40076;52.354;4.970;2023-05-02T00:38:52;102107.09;;;12.02;100.00
54172;BME280;40076;52.354;4.970;2023-05-02T00:41:17;102109.81;;;12.02;100.00
54172;BME280;40076;52.354;4.970;2023-05-02T00:43:43;102113.63;;;12.01;100.00
54172;BME280;40076;52.354;4.970;2023-05-02T00:46:08;102115.81;;;11.98;100.00
54172;BME280;40076;52.354;4.970;2023-05-02T00:48:36;102120.13;;;11.99;100.00
54172;BME280;40076;52.354;4.970;2023-05-02T00:51:04;102135.56;;;11.99;100.00
54172;BME280;40076;52.354;4.970;2023-05-02T00:53:30;102138.28;;;11.99;100.00
54172;BME280;40076;52.354;4.970;2023-05-02T00:55:57;102140.19;;;11.98;100.00
54172;BME280;40076;52.354;4.970;2023-05-02T00:58:22;102141.09;;;11.94;100.00
54172;BME280;40076;52.354;4.970;2023-05-02T01:01:18;102142.47;;;11.91;100.00
54172;BME280;40076;52.354;4.970;2023-05-02T01:08:51;102147.25;;;11.81;100.00
54172;BME280;40076;52.354;4.970;2023-05-02T01:11:34;102149.78;;;11.72;100.00
54172;BME280;40076;52.354;4.970;2023-05-02T01:14:04;102140.31;;;11.75;100.00
54172;BME280;40076;52.354;4.970;2023-05-02T01:16:31;102136.81;;;11.74;100.00
54172;BME280;40076;52.354;4.970;2023-05-02T01:18:58;102131.41;;;11.69;100.00
54172;BME280;40076;52.354;4.970;2023-05-02T01:21:25;102134.75;;;11.66;100.00
54172;BME280;40076;52.354;4.970;2023-05-02T01:24:01;102133.13;;;11.65;100.00
54172;BME280;40076;52.354;4.970;2023-05-02T01:26:40;102135.03;;;11.65;100.00
54172;BME280;40076;52.354;4.970;2023-05-02T01:29:11;102141.53;;;11.64;100.00
54172;BME280;40076;52.354;4.970;2023-05-02T01:31:40;102136.94;;;11.64;100.00
54172;BME280;40076;52.354;4.970;2023-05-02T01:34:08;102146.94;;;11.64;100.00
54172;BME280;40076;52.354;4.970;2023-05-02T01:41:48;102161.16;;;11.55;100.00
54172;BME280;40076;52.354;4.970;2023-05-02T01:44:15;102176.38;;;11.51;100.00
54172;BME280;40076;52.354;4.970;2023-05-02T01:46:44;102171.53;;;11.48;100.00
54172;BME280;40076;52.354;4.970;2023-05-02T01:49:10;102169.41;;;11.45;100.00
54172;BME280;40076;52.354;4.970;2023-05-02T01:51:41;102174.59;;;11.42;100.00
54172;BME280;40076;52.354;4.970;2023-05-02T01:54:09;102174.31;;;11.43;100.00
54172;BME280;40076;52.354;4.970;2023-05-02T01:56:37;102173.00;;;11.41;100.00
54172;BME280;40076;52.354;4.970;2023-05-02T01:59:07;102175.97;;;11.39;100.00
54172;BME280;40076;52.354;4.970;2023-05-02T02:01:35;102181.47;;;11.34;100.00
54172;BME280;40076;52.354;4.970;2023-05-02T02:04:03;102177.66;;;11.35;100.00
54172;BME280;40076;52.354;4.970;2023-05-02T02:06:29;102187.09;;;11.38;100.00
54172;BME280;40076;52.354;4.970;2023-05-02T02:08:55;102199.53;;;11.39;100.00
54172;BME280;40076;52.354;4.970;2023-05-02T02:11:25;102200.63;;;11.38;100.00
54172;BME280;40076;52.354;4.970;2023-05-02T02:13:55;102198.50;;;11.35;100.00
54172;BME280;40076;52.354;4.970;2023-05-02T02:16:29;102205.31;;;11.32;100.00
54172;BME280;40076;52.354;4.970;2023-05-02T02:18:56;102199.16;;;11.27;100.00
54172;BME280;40076;52.354;4.970;2023-05-02T02:21:24;102208.56;;;11.29;100.00
54172;BME280;40076;52.354;4.970;2023-05-02T02:23:54;102220.53;;;11.28;100.00
54172;BME280;40076;52.354;4.970;2023-05-02T02:26:22;102210.78;;;11.27;100.00
54172;BME280;40076;52.354;4.970;2023-05-02T02:28:47;102218.66;;;11.23;100.00
54172;BME280;40076;52.354;4.970;2023-05-02T02:31:13;102216.78;;;11.24;100.00
54172;BME280;40076;52.354;4.970;2023-05-02T02:33:38;102218.13;;;11.21;100.00
54172;BME280;40076;52.354;4.970;2023-05-02T02:36:13;102218.13;;;11.21;100.00
54172;BME280;40076;52.354;4.970;2023-05-02T02:39:11;102224.69;;;11.20;100.00
54172;BME280;40076;52.354;4.970;2023-05-02T02:41:44;102227.66;;;11.19;100.00
54172;BME280;40076;52.354;4.970;2023-05-02T02:49:48;102232.91;;;11.10;100.00
54172;BME280;40076;52.354;4.970;2023-05-02T02:52:37;102241.28;;;11.09;100.00
54172;BME280;40076;52.354;4.970;2023-05-02T02:55:28;102247.56;;;11.04;100.00
54172;BME280;40076;52.354;4.970;2023-05-02T02:58:18;102248.66;;;11.03;100.00
54172;BME280;40076;52.354;4.970;2023-05-02T03:00:45;102251.66;;;11.02;100.00
54172;BME280;40076;52.354;4.970;2023-05-02T03:03:13;102255.44;;;11.01;100.00
54172;BME280;40076;52.354;4.970;2023-05-02T03:05:41;102249.22;;;11.00;100.00
54172;BME280;40076;52.354;4.970;2023-05-02T03:08:10;102256.03;;;10.98;100.00
54172;BME280;40076;52.354;4.970;2023-05-02T03:10:35;102257.41;;;10.95;100.00
54172;BME280;40076;52.354;4.970;2023-05-02T03:13:01;102264.72;;;10.95;100.00
54172;BME280;40076;52.354;4.970;2023-05-02T03:16:05;102266.13;;;10.87;100.00
54172;BME280;40076;52.354;4.970;2023-05-02T03:18:36;102265.28;;;10.92;100.00
54172;BME280;40076;52.354;4.970;2023-05-02T03:21:02;102277.97;;;10.91;100.00
54172;BME280;40076;52.354;4.970;2023-05-02T03:23:27;102276.09;;;10.92;100.00
54172;BME280;40076;52.354;4.970;2023-05-02T03:25:52;102280.69;;;10.91;100.00
54172;BME280;40076;52.354;4.970;2023-05-02T03:28:17;102285.00;;;10.92;100.00
54172;BME280;40076;52.354;4.970;2023-05-02T03:30:43;102297.72;;;10.92;100.00
54172;BME280;40076;52.354;4.970;2023-05-02T03:33:08;102295.03;;;10.92;100.00
54172;BME280;40076;52.354;4.970;2023-05-02T03:35:33;102303.13;;;10.92;100.00
54172;BME280;40076;52.354;4.970;2023-05-02T03:37:58;102299.69;;;10.86;100.00
54172;BME280;40076;52.354;4.970;2023-05-02T03:40:24;102306.97;;;10.86;100.00
54172;BME280;40076;52.354;4.970;2023-05-02T03:42:51;102303.47;;;10.85;100.00
54172;BME280;40076;52.354;4.970;2023-05-02T03:45:16;102315.09;;;10.86;100.00
54172;BME280;40076;52.354;4.970;2023-05-02T03:47:41;102311.84;;;10.83;100.00
54172;BME280;40076;52.354;4.970;2023-05-02T03:50:07;102311.63;;;10.80;100.00
54172;BME280;40076;52.354;4.970;2023-05-02T03:52:32;102316.75;;;10.81;100.00
54172;BME280;40076;52.354;4.970;2023-05-02T03:55:00;102311.09;;;10.78;100.00
54172;BME280;40076;52.354;4.970;2023-05-02T03:57:25;102311.69;;;10.75;100.00
54172;BME280;40076;52.354;4.970;2023-05-02T03:59:50;102316.78;;;10.76;100.00
54172;BME280;40076;52.354;4.970;2023-05-02T04:02:16;102315.97;;;10.76;100.00
54172;BME280;40076;52.354;4.970;2023-05-02T04:04:41;102320.88;;;10.74;100.00
54172;BME280;40076;52.354;4.970;2023-05-02T04:07:07;102324.69;;;10.73;100.00
54172;BME280;40076;52.354;4.970;2023-05-02T04:09:34;102321.44;;;10.71;100.00
54172;BME280;40076;52.354;4.970;2023-05-02T04:11:59;102327.66;;;10.71;100.00
54172;BME280;40076;52.354;4.970;2023-05-02T04:14:25;102337.94;;;10.69;100.00
54172;BME280;40076;52.354;4.970;2023-05-02T04:16:51;102337.94;;;10.69;100.00
54172;BME280;40076;52.354;4.970;2023-05-02T04:19:19;102340.13;;;10.67;100.00
54172;BME280;40076;52.354;4.970;2023-05-02T04:21:44;102349.63;;;10.65;100.00
54172;BME280;40076;52.354;4.970;2023-05-02T04:24:10;102350.69;;;10.64;100.00
54172;BME280;40076;52.354;4.970;2023-05-02T04:26:35;102356.91;;;10.64;100.00
54172;BME280;40076;52.354;4.970;2023-05-02T04:29:01;102366.91;;;10.64;100.00
54172;BME280;40076;52.354;4.970;2023-05-02T04:31:26;102361.28;;;10.60;100.00
54172;BME280;40076;52.354;4.970;2023-05-02T04:33:52;102361.28;;;10.60;100.00
54172;BME280;40076;52.354;4.970;2023-05-02T04:36:17;102366.16;;;10.58;100.00
54172;BME280;40076;52.354;4.970;2023-05-02T04:38:43;102370.47;;;10.59;100.00
54172;BME280;40076;52.354;4.970;2023-05-02T04:41:09;102379.94;;;10.57;100.00
54172;BME280;40076;52.354;4.970;2023-05-02T04:43:34;102378.59;;;10.54;100.00
54172;BME280;40076;52.354;4.970;2023-05-02T04:46:00;102381.31;;;10.54;100.00
54172;BME280;40076;52.354;4.970;2023-05-02T04:48:25;102399.13;;;10.55;100.00
54172;BME280;40076;52.354;4.970;2023-05-02T04:50:51;102397.81;;;10.53;100.00
54172;BME280;40076;52.354;4.970;2023-05-02T04:53:19;102404.31;;;10.52;100.00
54172;BME280;40076;52.354;4.970;2023-05-02T04:55:44;102410.00;;;10.50;100.00
54172;BME280;40076;52.354;4.970;2023-05-02T04:58:10;102410.53;;;10.47;100.00
54172;BME280;40076;52.354;4.970;2023-05-02T05:00:35;102410.53;;;10.47;100.00
54172;BME280;40076;52.354;4.970;2023-05-02T05:03:01;102424.59;;;10.49;100.00
54172;BME280;40076;52.354;4.970;2023-05-02T05:05:26;102427.56;;;10.48;100.00
54172;BME280;40076;52.354;4.970;2023-05-02T05:07:51;102435.44;;;10.44;100.00
54172;BME280;40076;52.354;4.970;2023-05-02T05:10:17;102431.13;;;10.43;100.00
54172;BME280;40076;52.354;4.970;2023-05-02T05:12:42;102434.91;;;10.42;100.00
54172;BME280;40076;52.354;4.970;2023-05-02T05:15:07;102429.78;;;10.40;100.00
54172;BME280;40076;52.354;4.970;2023-05-02T05:17:33;102429.78;;;10.40;100.00
54172;BME280;40076;52.354;4.970;2023-05-02T05:19:58;102428.16;;;10.39;100.00
54172;BME280;40076;52.354;4.970;2023-05-02T05:22:24;102434.91;;;10.42;100.00
54172;BME280;40076;52.354;4.970;2023-05-02T05:24:53;102438.97;;;10.39;100.00
54172;BME280;40076;52.354;4.970;2023-05-02T05:27:18;102438.41;;;10.42;100.00
54172;BME280;40076;52.354;4.970;2023-05-02T05:29:44;102438.97;;;10.39;100.00
54172;BME280;40076;52.354;4.970;2023-05-02T05:32:09;102440.56;;;10.40;100.00
54172;BME280;40076;52.354;4.970;2023-05-02T05:34:34;102442.47;;;10.40;100.00
54172;BME280;40076;52.354;4.970;2023-05-02T05:37:00;102449.25;;;10.37;100.00
54172;BME280;40076;52.354;4.970;2023-05-02T05:39:25;102448.44;;;10.37;100.00
54172;BME280;40076;52.354;4.970;2023-05-02T05:41:51;102460.84;;;10.38;100.00
54172;BME280;40076;52.354;4.970;2023-05-02T05:44:16;102461.97;;;10.37;100.00
54172;BME280;40076;52.354;4.970;2023-05-02T05:46:42;102465.47;;;10.37;100.00
54172;BME280;40076;52.354;4.970;2023-05-02T05:49:07;102470.56;;;10.39;100.00
54172;BME280;40076;52.354;4.970;2023-05-02T05:51:32;102474.09;;;10.39;100.00
54172;BME280;40076;52.354;4.970;2023-05-02T05:53:59;102472.75;;;10.37;100.00
54172;BME280;40076;52.354;4.970;2023-05-02T05:56:24;102481.94;;;10.36;100.00
54172;BME280;40076;52.354;4.970;2023-05-02T05:58:50;102491.69;;;10.37;100.00
54172;BME280;40076;52.354;4.970;2023-05-02T06:01:15;102494.09;;;10.38;100.00
54172;BME280;40076;52.354;4.970;2023-05-02T06:03:40;102499.47;;;10.38;100.00
54172;BME280;40076;52.354;4.970;2023-05-02T06:06:06;102511.09;;;10.39;100.00
54172;BME280;40076;52.354;4.970;2023-05-02T06:08:31;102507.91;;;10.37;100.00
54172;BME280;40076;52.354;4.970;2023-05-02T06:10:57;102515.47;;;10.35;100.00
54172;BME280;40076;52.354;4.970;2023-05-02T06:13:22;102516.53;;;10.34;100.00
54172;BME280;40076;52.354;4.970;2023-05-02T06:15:47;102525.47;;;10.29;100.00
54172;BME280;40076;52.354;4.970;2023-05-02T06:18:13;102532.25;;;10.27;100.00
54172;BME280;40076;52.354;4.970;2023-05-02T06:20:39;102541.44;;;10.21;100.00
54172;BME280;40076;52.354;4.970;2023-05-02T06:23:04;102541.72;;;10.19;100.00
54172;BME280;40076;52.354;4.970;2023-05-02T06:25:30;102543.34;;;10.20;100.00
54172;BME280;40076;52.354;4.970;2023-05-02T06:27:57;102543.59;;;10.19;100.00
54172;BME280;40076;52.354;4.970;2023-05-02T06:30:22;102550.91;;;10.18;100.00
54172;BME280;40076;52.354;4.970;2023-05-02T06:32:47;102554.16;;;10.20;100.00
54172;BME280;40076;52.354;4.970;2023-05-02T06:35:12;102546.84;;;10.21;100.00
54172;BME280;40076;52.354;4.970;2023-05-02T06:37:38;102543.31;;;10.25;100.00
54172;BME280;40076;52.354;4.970;2023-05-02T06:40:03;102548.44;;;10.27;100.00
54172;BME280;40076;52.354;4.970;2023-05-02T06:42:29;102558.19;;;10.28;100.00
54172;BME280;40076;52.354;4.970;2023-05-02T06:44:54;102559.50;;;10.30;100.00
54172;BME280;40076;52.354;4.970;2023-05-02T06:47:20;102559.50;;;10.30;100.00
54172;BME280;40076;52.354;4.970;2023-05-02T06:49:49;102566.78;;;10.30;100.00
54172;BME280;40076;52.354;4.970;2023-05-02T06:52:15;102566.78;;;10.30;100.00
54172;BME280;40076;52.354;4.970;2023-05-02T06:54:40;102575.97;;;10.34;100.00
54172;BME280;40076;52.354;4.970;2023-05-02T06:57:06;102577.84;;;10.38;100.00
54172;BME280;40076;52.354;4.970;2023-05-02T06:59:32;102591.13;;;10.35;99.50
54172;BME280;40076;52.354;4.970;2023-05-02T07:01:57;102588.69;;;10.33;99.01
54172;BME280;40076;52.354;4.970;2023-05-02T07:04:22;102583.56;;;10.27;98.23
54172;BME280;40076;52.354;4.970;2023-05-02T07:06:48;102590.03;;;10.31;98.81
54172;BME280;40076;52.354;4.970;2023-05-02T07:09:13;102597.88;;;10.27;98.49
54172;BME280;40076;52.354;4.970;2023-05-02T07:11:38;102602.72;;;10.30;98.91
54172;BME280;40076;52.354;4.970;2023-05-02T07:14:03;102602.72;;;10.30;98.42
54172;BME280;40076;52.354;4.970;2023-05-02T07:16:29;102612.47;;;10.31;97.53
54172;BME280;40076;52.354;4.970;2023-05-02T07:18:54;102609.22;;;10.34;97.44
54172;BME280;40076;52.354;4.970;2023-05-02T07:21:20;102608.13;;;10.35;96.42
54172;BME280;40076;52.354;4.970;2023-05-02T07:23:45;102606.75;;;10.38;96.11
54172;BME280;40076;52.354;4.970;2023-05-02T07:26:10;102617.03;;;10.41;95.85
54172;BME280;40076;52.354;4.970;2023-05-02T07:28:36;102617.31;;;10.44;96.25
54172;BME280;40076;52.354;4.970;2023-05-02T07:31:01;102618.91;;;10.45;95.06
54172;BME280;40076;52.354;4.970;2023-05-02T07:33:27;102622.41;;;10.46;94.00
54172;BME280;40076;52.354;4.970;2023-05-02T07:35:52;102626.22;;;10.45;92.01
54172;BME280;40076;52.354;4.970;2023-05-02T07:38:17;102624.59;;;10.44;89.81
54172;BME280;40076;52.354;4.970;2023-05-02T07:40:43;102616.75;;;10.48;88.79
54172;BME280;40076;52.354;4.970;2023-05-02T07:43:10;102618.91;;;10.51;88.88
54172;BME280;40076;52.354;4.970;2023-05-02T07:45:35;102620.53;;;10.52;86.85
54172;BME280;40076;52.354;4.970;2023-05-02T07:48:00;102618.63;;;10.57;87.36
54172;BME280;40076;52.354;4.970;2023-05-02T07:50:26;102627.28;;;10.59;86.78
54172;BME280;40076;52.354;4.970;2023-05-02T07:52:53;102625.63;;;10.63;85.83
54172;BME280;40076;52.354;4.970;2023-05-02T07:55:19;102628.84;;;10.70;86.15
54172;BME280;40076;52.354;4.970;2023-05-02T07:57:45;102632.06;;;10.77;85.41
54172;BME280;40076;52.354;4.970;2023-05-02T08:00:19;102639.06;;;10.83;84.88
54172;BME280;40076;52.354;4.970;2023-05-02T08:02:45;102636.63;;;10.87;83.48
54172;BME280;40076;52.354;4.970;2023-05-02T08:05:10;102643.38;;;10.90;82.46
54172;BME280;40076;52.354;4.970;2023-05-02T08:07:36;102640.69;;;10.90;80.27
54172;BME280;40076;52.354;4.970;2023-05-02T08:10:01;102646.09;;;10.90;79.41
54172;BME280;40076;52.354;4.970;2023-05-02T08:12:26;102641.72;;;10.94;79.58
54172;BME280;40076;52.354;4.970;2023-05-02T08:14:52;102651.47;;;10.95;80.10
54172;BME280;40076;52.354;4.970;2023-05-02T08:17:18;102650.94;;;10.98;79.38
54172;BME280;40076;52.354;4.970;2023-05-02T08:19:43;102662.25;;;11.00;78.80
54172;BME280;40076;52.354;4.970;2023-05-02T08:22:08;102663.88;;;11.01;78.74
54172;BME280;40076;52.354;4.970;2023-05-02T08:24:33;102663.06;;;11.00;78.01
54172;BME280;40076;52.354;4.970;2023-05-02T08:26:59;102657.66;;;11.00;78.39
54172;BME280;40076;52.354;4.970;2023-05-02T08:29:24;102657.94;;;10.99;78.10
54172;BME280;40076;52.354;4.970;2023-05-02T08:31:49;102665.50;;;11.02;78.09
54172;BME280;40076;52.354;4.970;2023-05-02T08:34:15;102664.16;;;11.04;78.19
54172;BME280;40076;52.354;4.970;2023-05-02T08:36:40;102665.19;;;11.08;77.43
54172;BME280;40076;52.354;4.970;2023-05-02T08:39:06;102672.50;;;11.13;76.14
54172;BME280;40076;52.354;4.970;2023-05-02T08:41:34;102677.34;;;11.21;75.96
54172;BME280;40076;52.354;4.970;2023-05-02T08:44:01;102681.34;;;11.29;75.96
54172;BME280;40076;52.354;4.970;2023-05-02T08:46:27;102692.41;;;11.32;75.02
54172;BME280;40076;52.354;4.970;2023-05-02T08:48:53;102690.78;;;11.31;74.00
54172;BME280;40076;52.354;4.970;2023-05-02T08:51:23;102698.38;;;11.34;74.79
54172;BME280;40076;52.354;4.970;2023-05-02T08:53:49;102698.38;;;11.34;74.43
54172;BME280;40076;52.354;4.970;2023-05-02T08:56:14;102697.84;;;11.32;73.13
54172;BME280;40076;52.354;4.970;2023-05-02T08:58:40;102704.06;;;11.33;73.37
54172;BME280;40076;52.354;4.970;2023-05-02T09:01:12;102710.81;;;11.30;71.85
54172;BME280;40076;52.354;4.970;2023-05-02T09:03:39;102707.84;;;11.32;72.83
54172;BME280;40076;52.354;4.970;2023-05-02T09:06:13;102715.72;;;11.28;72.60
54172;BME280;40076;52.354;4.970;2023-05-02T09:08:40;102705.41;;;11.30;72.00
54172;BME280;40076;52.354;4.970;2023-05-02T09:11:07;102714.06;;;11.32;71.11
54172;BME280;40076;52.354;4.970;2023-05-02T09:13:41;102707.03;;;11.36;70.92
54172;BME280;40076;52.354;4.970;2023-05-02T09:16:18;102713.50;;;11.40;70.50
54172;BME280;40076;52.354;4.970;2023-05-02T09:18:48;102714.84;;;11.43;70.10
54172;BME280;40076;52.354;4.970;2023-05-02T09:21:18;102719.69;;;11.46;69.70
54172;BME280;40076;52.354;4.970;2023-05-02T09:23:48;102716.69;;;11.47;68.47
54172;BME280;40076;52.354;4.970;2023-05-02T09:26:17;102717.50;;;11.48;68.32
54172;BME280;40076;52.354;4.970;2023-05-02T09:28:53;102716.66;;;11.57;67.97
54172;BME280;40076;52.354;4.970;2023-05-02T09:31:19;102730.97;;;11.63;67.94
54172;BME280;40076;52.354;4.970;2023-05-02T09:33:46;102728.22;;;11.68;67.24
54172;BME280;40076;52.354;4.970;2023-05-02T09:36:17;102734.19;;;11.70;66.64
54172;BME280;40076;52.354;4.970;2023-05-02T09:38:45;102734.44;;;11.74;66.90
54172;BME280;40076;52.354;4.970;2023-05-02T09:41:11;102737.69;;;11.76;65.46
54172;BME280;40076;52.354;4.970;2023-05-02T09:43:37;102742.28;;;11.75;64.25
54172;BME280;40076;52.354;4.970;2023-05-02T09:46:04;102737.69;;;11.81;62.79
54172;BME280;40076;52.354;4.970;2023-05-02T09:48:32;102739.25;;;11.87;61.96
54172;BME280;40076;52.354;4.970;2023-05-02T09:51:20;102745.22;;;11.89;63.00
54172;BME280;40076;52.354;4.970;2023-05-02T09:53:46;102752.75;;;11.92;62.57
54172;BME280;40076;52.354;4.970;2023-05-02T09:56:11;102749.22;;;11.96;62.40
54172;BME280;40076;52.354;4.970;2023-05-02T09:58:37;102754.06;;;11.99;62.54
54172;BME280;40076;52.354;4.970;2023-05-02T10:01:02;102754.31;;;12.03;61.57
54172;BME280;40076;52.354;4.970;2023-05-02T10:03:28;102752.94;;;12.06;62.07
54172;BME280;40076;52.354;4.970;2023-05-02T10:05:55;102755.38;;;12.07;61.26
54172;BME280;40076;52.354;4.970;2023-05-02T10:08:23;102756.44;;;12.06;59.63
54172;BME280;40076;52.354;4.970;2023-05-02T10:10:56;102758.66;;;12.04;59.52
54172;BME280;40076;52.354;4.970;2023-05-02T10:13:24;102765.16;;;12.03;58.69
54172;BME280;40076;52.354;4.970;2023-05-02T10:15:59;102760.81;;;12.02;59.14
54172;BME280;40076;52.354;4.970;2023-05-02T10:18:37;102768.09;;;12.07;59.34
54172;BME280;40076;52.354;4.970;2023-05-02T10:21:08;102769.16;;;12.11;58.74
54172;BME280;40076;52.354;4.970;2023-05-02T10:23:34;102769.97;;;12.11;58.52
54172;BME280;40076;52.354;4.970;2023-05-02T10:26:00;102769.72;;;12.13;58.80
54172;BME280;40076;52.354;4.970;2023-05-02T10:28:26;102768.59;;;12.14;57.92
54172;BME280;40076;52.354;4.970;2023-05-02T10:30:52;102766.41;;;12.16;58.02
54172;BME280;40076;52.354;4.970;2023-05-02T10:33:20;102767.75;;;12.18;58.04
54172;BME280;40076;52.354;4.970;2023-05-02T10:35:45;102766.09;;;12.22;57.34
54172;BME280;40076;52.354;4.970;2023-05-02T10:38:16;102770.97;;;12.25;57.26
54172;BME280;40076;52.354;4.970;2023-05-02T10:40:47;102778.81;;;12.27;56.45
54172;BME280;40076;52.354;4.970;2023-05-02T10:43:19;102767.97;;;12.27;56.09
54172;BME280;40076;52.354;4.970;2023-05-02T10:45:45;102776.59;;;12.29;56.21
54172;BME280;40076;52.354;4.970;2023-05-02T10:48:19;102774.72;;;12.29;55.46
54172;BME280;40076;52.354;4.970;2023-05-02T10:50:48;102773.88;;;12.34;56.80
54172;BME280;40076;52.354;4.970;2023-05-02T10:53:24;102781.44;;;12.37;56.33
54172;BME280;40076;52.354;4.970;2023-05-02T10:58:38;102778.38;;;12.44;55.30
54172;BME280;40076;52.354;4.970;2023-05-02T11:04:05;102782.09;;;12.58;55.89
54172;BME280;40076;52.354;4.970;2023-05-02T11:06:33;102790.16;;;12.63;54.39
54172;BME280;40076;52.354;4.970;2023-05-02T11:11:48;102786.38;;;12.64;55.07
54172;BME280;40076;52.354;4.970;2023-05-02T11:19:30;102792.88;;;12.63;54.40
54172;BME280;40076;52.354;4.970;2023-05-02T11:24:51;102790.16;;;12.63;54.97
54172;BME280;40076;52.354;4.970;2023-05-02T11:29:58;102795.88;;;12.61;53.98
54172;BME280;40076;52.354;4.970;2023-05-02T11:32:26;102795.06;;;12.61;53.83
54172;BME280;40076;52.354;4.970;2023-05-02T11:35:17;102792.88;;;12.63;54.59
54172;BME280;40076;52.354;4.970;2023-05-02T11:37:51;102805.81;;;12.71;54.63
54172;BME280;40076;52.354;4.970;2023-05-02T11:40:17;102801.75;;;12.73;55.00
54172;BME280;40076;52.354;4.970;2023-05-02T11:42:42;102801.75;;;12.73;53.61
54172;BME280;40076;52.354;4.970;2023-05-02T11:45:08;102795.72;;;12.76;53.15
54172;BME280;40076;52.354;4.970;2023-05-02T11:47:34;102801.41;;;12.80;52.64
54172;BME280;40076;52.354;4.970;2023-05-02T11:50:03;102801.63;;;12.84;53.08
54172;BME280;40076;52.354;4.970;2023-05-02T11:52:29;102814.28;;;12.93;52.74
54172;BME280;40076;52.354;4.970;2023-05-02T11:54:55;102813.69;;;13.01;53.50
54172;BME280;40076;52.354;4.970;2023-05-02T11:57:21;102824.19;;;13.08;53.60
54172;BME280;40076;52.354;4.970;2023-05-02T11:59:54;102818.47;;;13.09;52.84
54172;BME280;40076;52.354;4.970;2023-05-02T12:02:47;102814.97;;;13.09;52.45
54172;BME280;40076;52.354;4.970;2023-05-02T12:05:13;102818.72;;;13.13;53.59
54172;BME280;40076;52.354;4.970;2023-05-02T12:07:44;102826.56;;;13.20;53.25
54172;BME280;40076;52.354;4.970;2023-05-02T12:10:11;102825.41;;;13.26;51.73
54172;BME280;40076;52.354;4.970;2023-05-02T12:12:37;102823.72;;;13.30;51.72
54172;BME280;40076;52.354;4.970;2023-05-02T12:15:09;102827.97;;;13.36;52.55
54172;BME280;40076;52.354;4.970;2023-05-02T12:17:42;102828.75;;;13.41;51.52
54172;BME280;40076;52.354;4.970;2023-05-02T12:20:09;102820.81;;;13.45;51.81
54172;BME280;40076;52.354;4.970;2023-05-02T12:22:35;102821.06;;;13.48;50.78
54172;BME280;40076;52.354;4.970;2023-05-02T12:25:01;102830.31;;;13.47;50.34
54172;BME280;40076;52.354;4.970;2023-05-02T12:27:28;102829.78;;;13.45;50.21
54172;BME280;40076;52.354;4.970;2023-05-02T12:29:53;102825.69;;;13.48;50.82
54172;BME280;40076;52.354;4.970;2023-05-02T12:32:33;102826.25;;;13.45;51.49
54172;BME280;40076;52.354;4.970;2023-05-02T12:35:00;102836.91;;;13.41;51.71
54172;BME280;40076;52.354;4.970;2023-05-02T12:37:26;102839.09;;;13.39;51.64
54172;BME280;40076;52.354;4.970;2023-05-02T12:39:52;102839.91;;;13.40;51.71
54172;BME280;40076;52.354;4.970;2023-05-02T12:42:19;102842.81;;;13.43;51.28
54172;BME280;40076;52.354;4.970;2023-05-02T12:44:47;102843.63;;;13.44;50.93
54172;BME280;40076;52.354;4.970;2023-05-02T12:47:14;102853.75;;;13.38;50.42
54172;BME280;40076;52.354;4.970;2023-05-02T12:52:15;102850.16;;;13.43;51.55
54172;BME280;40076;52.354;4.970;2023-05-02T12:54:41;102855.28;;;13.49;52.42
54172;BME280;40076;52.354;4.970;2023-05-02T12:57:06;102853.38;;;13.50;52.28
54172;BME280;40076;52.354;4.970;2023-05-02T12:59:32;102853.06;;;13.51;52.35
54172;BME280;40076;52.354;4.970;2023-05-02T13:01:58;102861.19;;;13.51;52.30
54172;BME280;40076;52.354;4.970;2023-05-02T13:04:37;102853.31;;;13.55;52.89
54172;BME280;40076;52.354;4.970;2023-05-02T13:07:03;102856.53;;;13.57;52.37
54172;BME280;40076;52.354;4.970;2023-05-02T13:09:29;102856.75;;;13.61;52.96
54172;BME280;40076;52.354;4.970;2023-05-02T13:11:54;102845.09;;;13.60;52.49
54172;BME280;40076;52.354;4.970;2023-05-02T13:14:21;102857.03;;;13.59;51.80
54172;BME280;40076;52.354;4.970;2023-05-02T13:16:48;102855.94;;;13.60;52.29
54172;BME280;40076;52.354;4.970;2023-05-02T13:19:13;102858.09;;;13.63;52.41
54172;BME280;40076;52.354;4.970;2023-05-02T13:21:39;102860.81;;;13.63;52.32
54172;BME280;40076;52.354;4.970;2023-05-02T13:24:04;102857.00;;;13.64;52.47